Time;durP1;ratioP1;P1;durP2;ratioP2;P2;SDS_P1;SDS_P2;PMS_P1;PMS_P2;Temp;Humidity;BMP_temperature;BMP_pressure;BME280_temperature;BME280_humidity;BME280_pressure;Samples;Min_cycle;Max_cycle;Signal;HPM_P1;HPM_P2
2021/08/11 00:01:05;;;;;;;3.60;2.20;;;;;;;19.72;nan;100736.66;5049446;28;20033;-74
2021/08/11 00:03:32;;;;;;;4.47;2.25;;;;;;;19.68;nan;100728.16;5050934;28;20112;-75
2021/08/11 00:05:58;;;;;;;3.33;2.40;;;;;;;19.64;nan;100732.28;5050682;28;20041;-74
2021/08/11 00:08:23;;;;;;;3.22;2.40;;;;;;;19.62;nan;100734.34;5049140;28;20041;-75
2021/08/11 00:10:48;;;;;;;5.73;3.00;;;;;;;19.61;nan;100734.53;5050383;28;20053;-75
2021/08/11 00:13:14;;;;;;;3.83;2.50;;;;;;;19.61;nan;100753.31;5049944;28;20041;-74
2021/08/11 00:15:39;;;;;;;4.50;2.70;;;;;;;19.52;nan;100755.38;5050708;28;20044;-74
2021/08/11 00:18:04;;;;;;;4.93;2.60;;;;;;;19.58;nan;100753.75;5050458;28;20048;-74
2021/08/11 00:20:30;;;;;;;4.65;2.65;;;;;;;19.64;nan;100748.38;5033214;28;20037;-75
2021/08/11 00:22:55;;;;;;;5.78;2.78;;;;;;;19.64;nan;100745.69;5030581;28;20087;-75
2021/08/11 00:25:21;;;;;;;5.20;2.80;;;;;;;19.69;nan;100748.63;5030070;28;20029;-75
2021/08/11 00:27:46;;;;;;;4.95;2.60;;;;;;;19.63;nan;100743.22;5035924;28;20059;-74
2021/08/11 00:30:11;;;;;;;4.35;3.10;;;;;;;19.63;nan;100733.31;5048148;28;20127;-74
2021/08/11 00:32:37;;;;;;;4.63;2.80;;;;;;;19.61;nan;100734.53;5050504;28;20029;-74
2021/08/11 00:35:04;;;;;;;4.85;2.83;;;;;;;19.59;nan;100734.75;5050227;28;20068;-74
2021/08/11 00:37:29;;;;;;;7.35;2.63;;;;;;;19.53;nan;100741.75;5041869;28;20075;-75
2021/08/11 00:39:58;;;;;;;5.75;2.70;;;;;;;19.55;nan;100746.94;5050051;28;20116;-75
2021/08/11 00:42:24;;;;;;;3.53;2.42;;;;;;;19.52;nan;100742.81;5041698;28;20033;-75
2021/08/11 00:44:49;;;;;;;2.75;2.03;;;;;;;19.51;nan;100740.31;5050133;28;20163;-75
2021/08/11 00:47:16;;;;;;;3.50;2.17;;;;;;;19.52;nan;100740.13;5050129;28;20045;-74
2021/08/11 00:49:42;;;;;;;2.47;1.70;;;;;;;19.50;nan;100736.00;5050031;28;20033;-74
2021/08/11 00:52:07;;;;;;;2.60;1.98;;;;;;;19.46;nan;100740.94;5049596;28;20079;-74
2021/08/11 00:54:35;;;;;;;3.97;2.70;;;;;;;19.37;nan;100746.69;5049834;28;20036;-74
2021/08/11 00:57:01;;;;;;;3.45;2.40;;;;;;;19.34;nan;100747.13;5048403;28;20616;-75
2021/08/11 00:59:28;;;;;;;3.00;2.28;;;;;;;19.28;nan;100741.53;5049796;28;20087;-74
2021/08/11 01:01:54;;;;;;;3.30;2.40;;;;;;;19.26;nan;100745.47;5049934;28;20055;-75
2021/08/11 01:04:20;;;;;;;4.03;2.40;;;;;;;19.18;nan;100743.78;5049721;28;20029;-75
2021/08/11 01:06:45;;;;;;;4.10;2.40;;;;;;;19.15;nan;100749.53;5050601;28;20033;-75
2021/08/11 01:09:16;;;;;;;4.03;2.45;;;;;;;19.14;nan;100739.88;5050049;28;20099;-75
2021/08/11 01:11:47;;;;;;;4.18;2.63;;;;;;;19.09;nan;100744.97;5049845;28;20432;-75
2021/08/11 01:14:13;;;;;;;12.57;6.43;;;;;;;19.24;nan;100739.47;5049591;28;20060;-75
2021/08/11 01:16:39;;;;;;;29.02;10.70;;;;;;;19.15;nan;100746.88;5050289;28;20048;-75
2021/08/11 01:19:04;;;;;;;27.17;10.65;;;;;;;19.14;nan;100749.75;5048929;28;20072;-75
2021/08/11 01:21:34;;;;;;;21.80;8.90;;;;;;;19.18;nan;100751.00;5050193;28;20029;-75
2021/08/11 01:24:29;;;;;;;7.10;3.83;;;;;;;19.26;nan;100759.69;5049611;28;20037;-75
2021/08/11 01:27:21;;;;;;;5.65;3.60;;;;;;;19.17;nan;100754.72;5042268;28;20450;-74
2021/08/11 01:30:11;;;;;;;5.40;3.10;;;;;;;19.20;nan;100744.41;5040993;28;20025;-74
2021/08/11 01:32:42;;;;;;;6.22;3.47;;;;;;;19.18;nan;100749.13;5028237;28;20174;-74
2021/08/11 01:35:13;;;;;;;5.80;3.30;;;;;;;19.06;nan;100746.22;5049901;28;20101;-75
2021/08/11 01:37:40;;;;;;;10.05;5.63;;;;;;;19.04;nan;100744.78;5049377;28;20263;-75
2021/08/11 01:40:09;;;;;;;23.35;8.60;;;;;;;19.01;nan;100747.88;5049621;28;20578;-75
2021/08/11 01:42:44;;;;;;;21.77;9.02;;;;;;;19.01;nan;100742.50;5049079;28;20523;-75
2021/08/11 01:45:24;;;;;;;16.00;6.22;;;;;;;19.00;nan;100739.00;5049015;28;20186;-75
2021/08/11 01:47:55;;;;;;;11.23;5.05;;;;;;;19.01;nan;100747.88;5044839;28;20436;-75
2021/08/11 01:50:21;;;;;;;7.65;4.22;;;;;;;19.00;nan;100749.72;5040029;28;20033;-75
2021/08/11 01:52:49;;;;;;;6.47;3.70;;;;;;;18.97;nan;100741.25;5049039;28;20049;-75
2021/08/11 01:55:16;;;;;;;4.55;2.95;;;;;;;19.02;nan;100736.09;5049325;28;20115;-75
2021/08/11 01:57:44;;;;;;;4.88;3.28;;;;;;;19.17;nan;100736.78;5048300;28;20040;-75
2021/08/11 02:00:11;;;;;;;4.95;2.95;;;;;;;19.17;nan;100744.81;5048914;28;20060;-75
2021/08/11 02:02:37;;;;;;;7.22;4.18;;;;;;;19.20;nan;100741.72;5048828;28;20424;-75
2021/08/11 02:05:09;;;;;;;8.93;4.20;;;;;;;19.10;nan;100736.75;5047367;28;20055;-75
2021/08/11 02:07:34;;;;;;;11.93;5.60;;;;;;;19.06;nan;100732.00;5047998;28;20456;-75
2021/08/11 02:10:00;;;;;;;18.70;7.90;;;;;;;19.02;nan;100749.50;5048828;28;20179;-75
2021/08/11 02:12:26;;;;;;;23.23;8.30;;;;;;;19.06;nan;100748.06;5048563;28;20045;-75
2021/08/11 02:14:52;;;;;;;26.08;9.05;;;;;;;19.14;nan;100749.75;5051086;28;20386;-75
2021/08/11 02:17:19;;;;;;;12.63;5.50;;;;;;;19.05;nan;100743.75;5052407;28;20037;-75
2021/08/11 02:19:44;;;;;;;8.98;4.40;;;;;;;19.03;nan;100743.13;5053242;28;20039;-75
2021/08/11 02:22:10;;;;;;;5.05;3.08;;;;;;;19.07;nan;100737.16;5051658;28;20037;-75
2021/08/11 02:24:36;;;;;;;5.25;3.05;;;;;;;19.13;nan;100740.88;5050975;28;20040;-75
2021/08/11 02:27:09;;;;;;;5.75;2.78;;;;;;;19.10;nan;100734.06;5044334;28;20040;-75
2021/08/11 02:29:47;;;;;;;5.00;3.28;;;;;;;19.16;nan;100745.00;5052950;28;20060;-75
2021/08/11 02:32:19;;;;;;;5.95;3.28;;;;;;;19.19;nan;100742.75;5050654;28;20109;-75
2021/08/11 02:34:56;;;;;;;4.45;2.63;;;;;;;19.12;nan;100741.09;5052915;28;20041;-75
2021/08/11 02:37:31;;;;;;;4.20;2.50;;;;;;;19.04;nan;100744.78;5052053;28;20052;-75
2021/08/11 02:40:04;;;;;;;5.18;2.90;;;;;;;19.03;nan;100738.59;5052303;28;20125;-75
2021/08/11 02:43:01;;;;;;;4.78;3.10;;;;;;;19.00;nan;100738.19;5049002;28;20044;-75
2021/08/11 02:45:29;;;;;;;4.95;3.15;;;;;;;18.99;nan;100749.91;5037724;28;20100;-75
2021/08/11 02:47:56;;;;;;;5.28;3.22;;;;;;;19.10;nan;100741.28;5047852;28;20116;-75
2021/08/11 02:50:22;;;;;;;4.90;2.92;;;;;;;19.14;nan;100739.00;5025219;28;20037;-75
2021/08/11 02:52:49;;;;;;;4.03;2.65;;;;;;;19.08;nan;100735.31;5032323;28;20041;-75
2021/08/11 02:55:14;;;;;;;5.93;3.15;;;;;;;19.02;nan;100741.47;5031735;28;20064;-75
2021/08/11 02:57:40;;;;;;;5.55;3.13;;;;;;;18.95;nan;100741.47;5032010;28;20053;-75
2021/08/11 03:00:07;;;;;;;5.30;3.42;;;;;;;19.00;nan;100738.19;5031262;28;20041;-75
2021/08/11 03:02:32;;;;;;;4.82;2.90;;;;;;;19.01;nan;100746.00;5031397;28;20038;-75
2021/08/11 03:04:58;;;;;;;6.10;3.35;;;;;;;19.02;nan;100741.47;5026075;28;20500;-75
2021/08/11 03:07:24;;;;;;;3.88;2.50;;;;;;;19.04;nan;100744.78;5051223;28;20049;-75
2021/08/11 03:09:50;;;;;;;7.00;3.05;;;;;;;19.05;nan;100741.06;5052998;28;20033;-75
2021/08/11 03:12:16;;;;;;;4.55;2.60;;;;;;;19.06;nan;100750.75;5051878;28;20141;-75
2021/08/11 03:14:44;;;;;;;5.60;3.03;;;;;;;19.07;nan;100749.75;5051624;28;20037;-78
2021/08/11 03:17:13;;;;;;;4.85;2.70;;;;;;;19.07;nan;100747.06;5051583;28;20044;-75
2021/08/11 03:19:39;;;;;;;5.07;3.15;;;;;;;19.15;nan;100741.50;5051495;28;20137;-75
2021/08/11 03:22:07;;;;;;;5.00;3.30;;;;;;;19.08;nan;100741.47;5051175;28;20573;-75
2021/08/11 03:24:33;;;;;;;5.57;3.42;;;;;;;19.12;nan;100744.59;5051243;28;20262;-75
2021/08/11 03:26:58;;;;;;;3.88;2.58;;;;;;;19.04;nan;100739.41;5051047;28;20618;-75
2021/08/11 03:29:23;;;;;;;4.32;3.03;;;;;;;19.06;nan;100738.19;5051133;28;20025;-75
2021/08/11 03:31:48;;;;;;;5.13;3.13;;;;;;;19.08;nan;100735.31;5051663;28;20040;-76
2021/08/11 03:34:14;;;;;;;3.92;2.88;;;;;;;18.99;nan;100748.06;5050863;28;21212;-75
2021/08/11 03:36:39;;;;;;;4.47;3.20;;;;;;;19.08;nan;100756.75;5051006;28;20037;-75
2021/08/11 03:39:04;;;;;;;5.10;2.80;;;;;;;19.00;nan;100762.31;5050368;28;20524;-75
2021/08/11 03:41:30;;;;;;;3.88;2.58;;;;;;;18.98;nan;100764.34;5051028;28;20094;-75
2021/08/11 03:43:55;;;;;;;3.88;2.92;;;;;;;18.93;nan;100758.78;5050607;28;20029;-75
2021/08/11 03:46:20;;;;;;;5.05;2.95;;;;;;;18.73;nan;100753.28;5049512;28;20130;-75
2021/08/11 03:48:46;;;;;;;4.30;2.60;;;;;;;18.49;nan;100758.13;5050867;28;20057;-75
2021/08/11 03:51:11;;;;;;;4.90;3.13;;;;;;;18.43;nan;100748.22;5050615;28;20044;-75
2021/08/11 03:53:38;;;;;;;14.10;4.28;;;;;;;18.34;nan;100752.91;5051076;28;20075;-75
2021/08/11 03:56:04;;;;;;;4.95;2.80;;;;;;;18.15;nan;100753.63;5049894;28;20040;-75
2021/08/11 03:58:29;;;;;;;5.35;2.65;;;;;;;18.15;nan;100759.78;5049079;28;20596;-75
2021/08/11 04:00:55;;;;;;;3.67;2.50;;;;;;;18.09;nan;100752.56;5051364;28;20033;-75
2021/08/11 04:03:20;;;;;;;4.80;3.03;;;;;;;18.02;nan;100754.34;5051809;28;20044;-75
2021/08/11 04:05:45;;;;;;;5.43;3.17;;;;;;;17.94;nan;100754.50;5050192;28;20036;-75
2021/08/11 04:08:11;;;;;;;4.05;2.90;;;;;;;17.91;nan;100749.53;5050438;28;20041;-75
2021/08/11 04:10:36;;;;;;;4.40;3.00;;;;;;;17.89;nan;100755.06;5050748;28;20029;-75
2021/08/11 04:13:02;;;;;;;5.75;3.35;;;;;;;17.80;nan;100759.75;5050600;28;20187;-75
2021/08/11 04:15:27;;;;;;;5.13;3.05;;;;;;;17.84;nan;100762.84;5049522;28;20036;-75
2021/08/11 04:17:52;;;;;;;4.32;2.80;;;;;;;17.87;nan;100764.31;5050562;28;20512;-75
2021/08/11 04:20:20;;;;;;;4.72;3.17;;;;;;;18.06;nan;100774.34;5049516;28;20040;-75
2021/08/11 04:22:45;;;;;;;6.28;3.42;;;;;;;18.15;nan;100759.78;5050284;28;20124;-75
2021/08/11 04:25:10;;;;;;;6.68;3.08;;;;;;;18.30;nan;100770.38;5050379;28;20128;-75
2021/08/11 04:27:36;;;;;;;9.15;3.72;;;;;;;18.38;nan;100767.56;5050143;28;20265;-75
2021/08/11 04:30:02;;;;;;;5.53;3.15;;;;;;;18.43;nan;100775.81;5048211;28;20110;-75
2021/08/11 04:32:27;;;;;;;6.13;3.20;;;;;;;18.39;nan;100774.56;5049712;28;20044;-75
2021/08/11 04:34:53;;;;;;;4.18;2.67;;;;;;;18.42;nan;100782.22;5050136;28;20048;-75
2021/08/11 04:37:18;;;;;;;4.10;2.90;;;;;;;18.41;nan;100779.72;5049194;28;20033;-75
2021/08/11 04:39:44;;;;;;;3.70;2.50;;;;;;;18.44;nan;100792.72;5047426;28;20131;-75
2021/08/11 04:42:10;;;;;;;5.05;2.58;;;;;;;18.48;nan;100793.16;5049657;28;20123;-75
2021/08/11 04:44:35;;;;;;;3.10;2.22;;;;;;;18.44;nan;100784.66;5049746;28;20033;-75
2021/08/11 04:47:01;;;;;;;4.85;2.80;;;;;;;18.26;nan;100795.91;5049830;28;20056;-75
2021/08/11 04:49:26;;;;;;;4.60;3.03;;;;;;;18.11;nan;100787.13;5049077;28;20123;-75
2021/08/11 04:51:52;;;;;;;5.85;3.30;;;;;;;18.10;nan;100790.84;5048917;28;20069;-75
2021/08/11 04:54:17;;;;;;;4.30;3.10;;;;;;;17.94;nan;100787.41;5048906;28;20029;-75
2021/08/11 04:56:43;;;;;;;4.00;2.65;;;;;;;17.88;nan;100785.53;5049473;28;20390;-75
2021/08/11 04:59:08;;;;;;;3.67;2.72;;;;;;;17.87;nan;100789.22;5049219;28;20132;-75
2021/08/11 05:01:34;;;;;;;3.42;2.40;;;;;;;17.89;nan;100781.00;5048577;28;20025;-75
2021/08/11 05:03:59;;;;;;;4.00;2.50;;;;;;;17.89;nan;100781.00;5049649;28;20048;-75
2021/08/11 05:06:24;;;;;;;4.20;2.70;;;;;;;17.91;nan;100789.66;5049390;28;20052;-75
2021/08/11 05:08:49;;;;;;;3.70;2.43;;;;;;;17.94;nan;100783.91;5049375;28;20037;-75
2021/08/11 05:11:15;;;;;;;5.13;3.00;;;;;;;17.94;nan;100787.41;5047608;28;20295;-75
2021/08/11 05:13:41;;;;;;;4.40;2.75;;;;;;;17.97;nan;100791.53;5048222;28;20394;-75
2021/08/11 05:16:06;;;;;;;5.25;2.90;;;;;;;17.94;nan;100790.09;5049254;28;20033;-76
2021/08/11 05:18:31;;;;;;;4.45;2.85;;;;;;;17.93;nan;100792.97;5050321;28;20428;-75
2021/08/11 05:20:56;;;;;;;4.88;3.35;;;;;;;17.95;nan;100794.44;5049037;28;20033;-76
2021/08/11 05:23:22;;;;;;;4.28;3.00;;;;;;;18.00;nan;100801.88;5049429;28;20040;-75
2021/08/11 05:25:48;;;;;;;4.05;2.90;;;;;;;18.02;nan;100795.31;5049588;28;20430;-75
2021/08/11 05:28:14;;;;;;;3.30;2.28;;;;;;;18.11;nan;100800.50;5048576;28;20116;-75
2021/08/11 05:30:40;;;;;;;3.95;2.75;;;;;;;18.15;nan;100805.28;5049838;28;20093;-75
2021/08/11 05:33:06;;;;;;;3.35;2.40;;;;;;;18.17;nan;100808.59;5049495;28;20143;-75
2021/08/11 05:35:31;;;;;;;4.40;2.63;;;;;;;18.23;nan;100809.66;5049516;28;20490;-75
2021/08/11 05:37:56;;;;;;;4.43;3.00;;;;;;;18.26;nan;100803.94;5049287;28;20037;-75
2021/08/11 05:40:22;;;;;;;3.65;2.67;;;;;;;18.34;nan;100811.78;5048465;28;20041;-76
2021/08/11 05:42:47;;;;;;;5.60;3.15;;;;;;;18.51;nan;100819.53;5049260;28;20120;-75
2021/08/11 05:45:12;;;;;;;4.75;2.97;;;;;;;18.67;nan;100821.91;5049192;28;20543;-75
2021/08/11 05:47:39;;;;;;;4.47;2.85;;;;;;;18.67;nan;100825.41;5047583;28;20039;-75
2021/08/11 05:50:05;;;;;;;5.85;3.60;;;;;;;18.73;nan;100815.72;5050868;28;20040;-75
2021/08/11 05:52:30;;;;;;;6.32;3.35;;;;;;;18.74;nan;100825.44;5052458;28;20045;-75
2021/08/11 05:54:55;;;;;;;5.82;3.30;;;;;;;18.76;nan;100826.09;5052463;28;20036;-76
2021/08/11 05:57:21;;;;;;;3.58;2.53;;;;;;;18.88;nan;100824.50;5052317;28;20029;-76
2021/08/11 05:59:47;;;;;;;4.78;2.80;;;;;;;18.97;nan;100829.69;5051998;28;20447;-76
2021/08/11 06:02:12;;;;;;;3.28;2.60;;;;;;;19.01;nan;100834.44;5052749;28;20032;-76
2021/08/11 06:04:37;;;;;;;4.68;2.90;;;;;;;19.05;nan;100834.88;5053158;28;20108;-76
2021/08/11 06:07:03;;;;;;;4.60;3.00;;;;;;;19.03;nan;100835.06;5053119;28;20125;-76
2021/08/11 06:09:29;;;;;;;4.65;2.70;;;;;;;19.05;nan;100835.72;5052782;28;20029;-76
2021/08/11 06:11:54;;;;;;;3.78;2.53;;;;;;;19.15;nan;100827.28;5053052;28;20402;-76
2021/08/11 06:14:20;;;;;;;6.72;3.22;;;;;;;19.24;nan;100831.44;5052583;28;20456;-75
2021/08/11 06:16:45;;;;;;;3.78;2.38;;;;;;;19.33;nan;100833.94;5051560;28;20052;-76
2021/08/11 06:19:10;;;;;;;3.50;2.58;;;;;;;19.47;nan;100836.47;5052885;28;20033;-76
2021/08/11 06:21:36;;;;;;;5.18;3.00;;;;;;;19.56;nan;100838.94;5052765;28;20637;-76
2021/08/11 06:24:01;;;;;;;3.78;2.78;;;;;;;19.70;nan;100833.44;5052366;28;20115;-76
2021/08/11 06:26:27;;;;;;;3.05;2.58;;;;;;;19.90;nan;100832.63;5052389;28;20037;-76
2021/08/11 06:28:53;;;;;;;4.03;2.67;;;;;;;20.08;nan;100827.47;5053255;28;20028;-76
2021/08/11 06:31:20;;;;;;;5.30;3.10;;;;;;;20.25;nan;100833.25;5053333;28;20037;-76
2021/08/11 06:33:46;;;;;;;4.28;3.17;;;;;;;20.33;nan;100841.09;5053251;28;20108;-76
2021/08/11 06:36:12;;;;;;;4.40;3.10;;;;;;;20.38;nan;100829.72;5051247;28;20614;-76
2021/08/11 06:38:38;;;;;;;3.83;2.70;;;;;;;20.52;nan;100838.56;5052436;28;20407;-75
2021/08/11 06:41:03;;;;;;;5.28;2.72;;;;;;;20.66;nan;100828.66;5052180;28;20045;-76
2021/08/11 06:43:29;;;;;;;4.57;3.42;;;;;;;20.92;nan;100833.13;5051677;28;20470;-75
2021/08/11 06:45:54;;;;;;;5.40;3.00;;;;;;;20.94;nan;100831.03;5050931;28;20036;-76
2021/08/11 06:48:19;;;;;;;7.10;3.95;;;;;;;20.93;nan;100830.22;5049629;28;20563;-75
2021/08/11 06:50:45;;;;;;;5.63;3.40;;;;;;;20.79;nan;100824.06;5051370;28;20120;-76
2021/08/11 06:53:10;;;;;;;6.22;3.88;;;;;;;20.78;nan;100824.28;5050854;28;20041;-76
2021/08/11 06:55:35;;;;;;;5.18;3.80;;;;;;;20.65;nan;100827.00;5051097;28;20501;-76
2021/08/11 06:58:01;;;;;;;5.45;3.78;;;;;;;20.62;nan;100827.41;5050150;28;20068;-75
2021/08/11 07:00:26;;;;;;;5.75;3.55;;;;;;;20.72;nan;100827.81;5050160;28;20280;-76
2021/08/11 07:02:51;;;;;;;5.53;3.53;;;;;;;21.00;nan;100832.91;5051050;28;20405;-76
2021/08/11 07:05:17;;;;;;;4.07;3.03;;;;;;;21.24;nan;100831.34;5050368;28;20033;-76
2021/08/11 07:07:42;;;;;;;5.82;3.83;;;;;;;21.37;nan;100823.19;5051007;28;20033;-76
2021/08/11 07:10:09;;;;;;;5.93;3.85;;;;;;;21.59;nan;100833.63;5050632;28;20575;-76
2021/08/11 07:12:35;;;;;;;5.43;3.60;;;;;;;21.95;nan;100832.97;5050373;28;20561;-76
2021/08/11 07:15:00;;;;;;;5.53;3.75;;;;;;;22.53;nan;100829.16;5050694;28;20127;-76
2021/08/11 07:17:26;;;;;;;6.53;3.90;;;;;;;22.45;nan;100835.66;5050754;28;20047;-76
2021/08/11 07:19:51;;;;;;;5.90;4.10;;;;;;;22.36;nan;100834.28;5050336;28;20033;-75
2021/08/11 07:22:17;;;;;;;5.22;3.78;;;;;;;22.44;nan;100839.38;5050082;28;20033;-76
2021/08/11 07:24:43;;;;;;;5.68;3.70;;;;;;;22.67;nan;100825.25;5050188;28;20041;-76
2021/08/11 07:27:09;;;;;;;4.85;2.90;;;;;;;22.87;nan;100827.72;5050687;28;20033;-76
2021/08/11 07:29:34;;;;;;;5.25;3.20;;;;;;;22.97;nan;100829.88;5050436;28;20106;-76
2021/08/11 07:31:59;;;;;;;4.55;3.03;;;;;;;22.77;nan;100838.22;5049058;28;20556;-75
2021/08/11 07:34:25;;;;;;;4.43;2.90;;;;;;;22.62;nan;100835.91;5049831;28;20037;-76
2021/08/11 07:36:50;;;;;;;4.17;3.07;;;;;;;22.56;nan;100839.47;5051245;28;20036;-76
2021/08/11 07:39:16;;;;;;;3.55;2.47;;;;;;;22.46;nan;100836.47;5049711;28;20779;-76
2021/08/11 07:41:41;;;;;;;4.95;3.70;;;;;;;22.44;nan;100833.19;5013479;28;1077728;-75
2021/08/11 07:44:07;;;;;;;5.05;3.50;;;;;;;22.20;nan;100835.69;5050813;28;20463;-75
2021/08/11 07:46:32;;;;;;;4.43;2.90;;;;;;;22.14;nan;100833.81;5052105;28;20037;-76
2021/08/11 07:48:59;;;;;;;5.75;3.45;;;;;;;22.14;nan;100839.22;5050369;28;20421;-75
2021/08/11 07:51:25;;;;;;;5.03;3.22;;;;;;;22.14;nan;100847.28;5051833;28;20100;-75
2021/08/11 07:53:50;;;;;;;6.28;3.60;;;;;;;22.11;nan;100842.34;5050837;28;20060;-75
2021/08/11 07:56:15;;;;;;;6.05;3.58;;;;;;;22.38;nan;100839.44;5050633;28;20394;-76
2021/08/11 07:58:40;;;;;;;4.53;3.03;;;;;;;22.94;nan;100840.31;5049319;28;20513;-75
2021/08/11 08:01:06;;;;;;;5.10;3.17;;;;;;;23.48;nan;100846.69;5051153;28;20041;-76
2021/08/11 08:03:31;;;;;;;5.55;3.40;;;;;;;24.05;nan;100841.69;5051308;28;20047;-75
2021/08/11 08:05:56;;;;;;;4.88;3.05;;;;;;;24.47;nan;100836.19;5050715;28;20120;-75
2021/08/11 08:08:22;;;;;;;6.03;3.08;;;;;;;24.53;nan;100835.25;5049100;28;20117;-76
2021/08/11 08:10:47;;;;;;;3.70;2.70;;;;;;;24.88;nan;100833.53;5051232;28;20505;-76
2021/08/11 08:13:12;;;;;;;4.55;3.10;;;;;;;24.85;nan;100834.81;5049829;28;20053;-76
2021/08/11 08:15:38;;;;;;;5.82;2.88;;;;;;;24.80;nan;100843.66;5050290;28;20056;-76
2021/08/11 08:18:04;;;;;;;4.72;2.90;;;;;;;24.88;nan;100838.94;5050424;28;20209;-76
2021/08/11 08:20:30;;;;;;;5.60;3.60;;;;;;;24.78;nan;100832.25;5050351;28;20091;-76
2021/08/11 08:22:56;;;;;;;5.05;2.83;;;;;;;24.62;nan;100835.69;5050117;28;20033;-76
2021/08/11 08:25:22;;;;;;;5.65;2.63;;;;;;;24.35;nan;100835.34;5050151;28;20504;-76
2021/08/11 08:27:52;;;;;;;4.40;2.50;;;;;;;24.38;nan;100841.13;5050172;28;20064;-76
2021/08/11 08:30:18;;;;;;;;;;;;;;;24.82;nan;100842.63;5050124;28;20048;-76
2021/08/11 08:32:44;;;;;;;;;;;;;;;24.92;nan;100850.94;5050765;28;20335;-76
2021/08/11 08:35:10;;;;;;;5.13;2.95;;;;;;;24.79;nan;100842.03;5050084;28;19912;-76
2021/08/11 08:37:37;;;;;;;4.35;2.72;;;;;;;24.65;nan;100846.06;5049808;28;20060;-76
2021/08/11 08:40:05;;;;;;;3.67;2.58;;;;;;;25.01;nan;100844.09;5050113;28;20290;-76
2021/08/11 08:42:30;;;;;;;4.50;2.65;;;;;;;25.67;nan;100847.25;5048746;28;20508;-76
2021/08/11 08:44:56;;;;;;;5.20;3.00;;;;;;;25.83;nan;100843.72;5049853;28;20131;-76
2021/08/11 08:47:21;;;;;;;;;;;;;;;26.96;nan;100842.69;5050704;28;20025;-76
2021/08/11 08:49:48;;;;;;;5.87;2.77;;;;;;;27.83;nan;100845.53;5050403;28;19927;-77
2021/08/11 08:52:17;;;;;;;3.65;2.10;;;;;;;28.32;nan;100857.03;5049524;28;20041;-76
2021/08/11 08:54:43;;;;;;;2.10;1.42;;;;;;;28.56;nan;100852.03;5049568;28;20794;-76
2021/08/11 08:57:09;;;;;;;3.40;2.42;;;;;;;28.59;nan;100842.53;5047316;28;20497;-76
2021/08/11 08:59:34;;;;;;;3.50;1.95;;;;;;;29.02;nan;100851.41;5050678;28;20424;-76
2021/08/11 09:01:59;;;;;;;4.57;2.28;;;;;;;28.93;nan;100853.81;5049930;28;20057;-75
2021/08/11 09:04:25;;;;;;;3.75;2.28;;;;;;;28.55;nan;100857.72;5047866;28;20061;-76
2021/08/11 09:06:50;;;;;;;4.43;2.20;;;;;;;29.04;nan;100851.97;5050000;28;20087;-76
2021/08/11 09:09:15;;;;;;;3.08;2.05;;;;;;;30.10;nan;100855.13;5050042;28;20026;-76
2021/08/11 09:11:43;;;;;;;4.73;2.20;;;;;;;30.99;nan;100850.03;5049766;28;20505;-77
2021/08/11 09:14:23;;;;;;;;;;;;;;;31.55;nan;100862.56;5049243;28;21112;-77
2021/08/11 09:16:53;;;;;;;5.90;2.40;;;;;;;32.27;nan;100857.31;5049727;28;20364;-77
2021/08/11 09:19:20;;;;;;;3.47;2.20;;;;;;;32.22;nan;100853.81;5049374;28;20025;-76
2021/08/11 09:22:03;;;;;;;4.15;2.00;;;;;;;32.50;nan;100858.47;5048297;28;20048;-76
2021/08/11 09:24:37;;;;;;;3.42;2.30;;;;;;;31.99;nan;100860.88;5041463;28;20047;-77
2021/08/11 09:27:23;;;;;;;2.77;1.60;;;;;;;31.04;nan;100858.19;5046908;28;20508;-76
2021/08/11 09:30:01;;;;;;;2.97;1.80;;;;;;;30.58;nan;100854.78;5048981;28;20218;-76
2021/08/11 09:32:26;;;;;;;2.95;1.80;;;;;;;30.51;nan;100855.13;5040385;28;20052;-76
2021/08/11 09:34:54;;;;;;;3.13;2.00;;;;;;;30.42;nan;100852.13;5047469;28;20029;-76
2021/08/11 09:37:37;;;;;;;2.95;1.80;;;;;;;30.77;nan;100850.34;5048964;28;20037;-76
2021/08/11 09:40:31;;;;;;;3.60;2.00;;;;;;;30.62;nan;100847.69;5046364;28;20035;-76
2021/08/11 09:43:01;;;;;;;2.72;1.70;;;;;;;30.22;nan;100855.69;5040120;28;20091;-76
2021/08/11 09:45:42;;;;;;;3.78;1.90;;;;;;;29.89;nan;100853.50;5048230;28;20128;-76
2021/08/11 09:48:07;;;;;;;2.78;1.70;;;;;;;29.47;nan;100851.84;5048201;28;20041;-76
2021/08/11 09:50:35;;;;;;;2.72;1.60;;;;;;;29.81;nan;100838.53;5045915;28;20090;-76
2021/08/11 09:53:01;;;;;;;3.65;1.75;;;;;;;30.15;nan;100846.97;5045697;28;20045;-76
2021/08/11 09:55:26;;;;;;;1.65;1.20;;;;;;;30.64;nan;100843.59;5046807;28;20467;-76
2021/08/11 09:57:52;;;;;;;3.60;1.60;;;;;;;30.78;nan;100848.47;5048513;28;20033;-76
2021/08/11 10:00:17;;;;;;;2.35;1.60;;;;;;;30.77;nan;100852.28;5043092;28;20921;-76
2021/08/11 10:02:43;;;;;;;3.42;1.88;;;;;;;30.61;nan;100849.63;5048669;28;20112;-76
2021/08/11 10:05:29;;;;;;;2.97;1.77;;;;;;;30.62;nan;100851.22;5047302;28;20412;-76
2021/08/11 10:07:55;;;;;;;3.78;2.15;;;;;;;30.01;nan;100852.16;5047498;28;20079;-76
2021/08/11 10:10:21;;;;;;;2.97;1.90;;;;;;;29.60;nan;100854.00;5040146;28;20024;-76
2021/08/11 10:12:48;;;;;;;3.45;2.10;;;;;;;29.23;nan;100852.34;5048408;28;20249;-76
2021/08/11 10:15:14;;;;;;;4.22;2.17;;;;;;;29.36;nan;100857.25;5048726;28;20425;-76
2021/08/11 10:17:40;;;;;;;3.17;1.90;;;;;;;28.98;nan;100850.31;5047044;28;20033;-76
2021/08/11 10:20:07;;;;;;;4.38;2.00;;;;;;;28.64;nan;100849.91;5047771;28;20030;-76
2021/08/11 10:22:33;;;;;;;3.72;2.25;;;;;;;28.62;nan;100841.19;5047299;28;20036;-75
2021/08/11 10:24:59;;;;;;;3.58;1.95;;;;;;;28.58;nan;100855.31;5045401;28;20029;-76
2021/08/11 10:27:25;;;;;;;3.28;1.85;;;;;;;28.82;nan;100854.88;5048443;28;20041;-76
2021/08/11 10:29:52;;;;;;;2.70;2.00;;;;;;;28.31;nan;100858.09;5048843;28;20138;-76
2021/08/11 10:32:19;;;;;;;3.28;1.88;;;;;;;27.95;nan;100855.13;5047422;28;20037;-76
2021/08/11 10:34:45;;;;;;;2.92;1.85;;;;;;;27.86;nan;100859.41;5048536;28;20037;-76
2021/08/11 10:37:13;;;;;;;2.97;1.52;;;;;;;27.63;nan;100849.66;5050682;28;20068;-76
2021/08/11 10:39:39;;;;;;;3.28;1.98;;;;;;;27.57;nan;100855.31;5051169;28;20452;-76
2021/08/11 10:42:14;;;;;;;5.05;2.10;;;;;;;27.40;nan;100850.78;5051102;28;20055;-76
2021/08/11 10:44:40;;;;;;;3.67;2.00;;;;;;;27.36;nan;100855.09;5049905;28;20029;-76
2021/08/11 10:47:08;;;;;;;2.78;1.60;;;;;;;27.12;nan;100859.97;5051972;28;20035;-76
2021/08/11 10:49:54;;;;;;;2.72;1.90;;;;;;;26.94;nan;100858.41;5053079;28;20040;-76
2021/08/11 10:52:19;;;;;;;2.55;1.80;;;;;;;26.92;nan;100855.13;5051266;28;20331;-76
2021/08/11 10:54:50;;;;;;;4.13;2.92;;;;;;;27.15;nan;100856.75;5052092;28;20080;-76
2021/08/11 10:57:36;;;;;;;;;;;;;;;26.85;nan;100851.78;5051809;28;20090;-76
2021/08/11 11:00:02;;;;;;;3.80;2.55;;;;;;;27.00;nan;100846.53;5048985;28;20031;-76
2021/08/11 11:02:40;;;;;;;4.75;2.65;;;;;;;27.27;nan;100845.78;5046243;28;20498;-76
2021/08/11 11:05:21;;;;;;;3.60;1.98;;;;;;;27.46;nan;100846.22;5050802;28;20041;-76
2021/08/11 11:08:05;;;;;;;3.08;2.20;;;;;;;27.40;nan;100847.28;5052012;28;20397;-76
2021/08/11 11:10:30;;;;;;;4.15;2.28;;;;;;;27.62;nan;100837.16;5051196;28;20040;-76
2021/08/11 11:12:56;;;;;;;4.18;2.30;;;;;;;28.02;nan;100833.16;5049945;28;20118;-76
2021/08/11 11:15:39;;;;;;;4.15;2.22;;;;;;;28.18;nan;100836.81;5051764;28;20033;-76
2021/08/11 11:18:22;;;;;;;3.85;2.30;;;;;;;28.37;nan;100826.34;5048761;28;20041;-76
2021/08/11 11:20:56;;;;;;;3.63;2.30;;;;;;;28.50;nan;100820.44;5044240;28;20116;-76
2021/08/11 11:23:42;;;;;;;3.50;2.30;;;;;;;28.48;nan;100817.16;5023721;28;20091;-76
2021/08/11 11:26:11;;;;;;;4.13;2.00;;;;;;;28.30;nan;100814.88;5030489;28;20046;-76
2021/08/11 11:29:05;;;;;;;3.75;2.10;;;;;;;28.59;nan;100815.31;5029728;28;20041;-76
2021/08/11 11:31:30;;;;;;;3.63;2.00;;;;;;;28.77;nan;100812.13;5031232;28;20091;-75
2021/08/11 11:34:25;;;;;;;3.53;2.17;;;;;;;28.64;nan;100801.72;5031766;28;20038;-76
2021/08/11 11:36:56;;;;;;;4.55;2.15;;;;;;;28.72;nan;100814.84;5038169;28;20041;-76
2021/08/11 11:39:26;;;;;;;3.05;1.85;;;;;;;28.46;nan;100816.63;5050601;28;20075;-76
2021/08/11 11:42:06;;;;;;;3.45;1.98;;;;;;;28.57;nan;100812.84;5047685;28;20036;-75
2021/08/11 11:44:59;;;;;;;3.35;2.03;;;;;;;28.84;nan;100811.91;5044520;28;20095;-75